Time;durP1;ratioP1;P1;durP2;ratioP2;P2;SDS_P1;SDS_P2;PMS_P1;PMS_P2;Temp;Humidity;BMP_temperature;BMP_pressure;BME280_temperature;BME280_humidity;BME280_pressure;Samples;Min_cycle;Max_cycle;Signal;HPM_P1;HPM_P2
2020/12/02 00:00:59;;;;;;;40.03;25.83;;;5.20;99.90;;;;;;5093598;28;20518;-79
2020/12/02 00:03:33;;;;;;;40.40;24.52;;;5.20;99.90;;;;;;5076481;28;20453;-79
2020/12/02 00:06:02;;;;;;;38.77;22.70;;;5.30;99.90;;;;;;5076689;28;20557;-79
2020/12/02 00:08:32;;;;;;;38.60;24.53;;;5.30;99.90;;;;;;5076694;28;20970;-79
2020/12/02 00:11:02;;;;;;;40.53;25.75;;;5.20;99.90;;;;;;5077404;28;20533;-79
2020/12/02 00:13:33;;;;;;;40.17;24.07;;;5.30;99.90;;;;;;5079238;28;20191;-79
2020/12/02 00:16:00;;;;;;;36.27;25.30;;;5.30;99.90;;;;;;5082243;28;20453;-80
2020/12/02 00:18:29;;;;;;;41.60;26.43;;;5.20;99.90;;;;;;5076474;28;20467;-79
2020/12/02 00:20:56;;;;;;;36.40;23.20;;;5.20;99.90;;;;;;5078103;28;20962;-79
2020/12/02 00:23:23;;;;;;;39.60;24.83;;;5.20;99.90;;;;;;5093186;28;20471;-79
2020/12/02 00:25:51;;;;;;;39.77;26.17;;;5.20;99.90;;;;;;5090308;28;20540;-79
2020/12/02 00:28:19;;;;;;;41.10;27.93;;;5.20;99.90;;;;;;5077537;28;20983;-79
2020/12/02 00:30:47;;;;;;;42.83;28.10;;;5.20;99.90;;;;;;5076149;28;20468;-79
2020/12/02 00:33:16;;;;;;;38.33;26.43;;;5.20;99.90;;;;;;5081062;28;20449;-79
2020/12/02 00:35:44;;;;;;;44.77;28.17;;;5.10;99.90;;;;;;5085861;28;20536;-79
2020/12/02 00:38:13;;;;;;;39.87;27.33;;;5.10;99.90;;;;;;5076120;28;20457;-79
2020/12/02 00:40:44;;;;;;;41.87;26.20;;;5.10;99.90;;;;;;5076654;28;20464;-79
2020/12/02 00:43:13;;;;;;;39.77;26.33;;;5.10;99.90;;;;;;5078989;28;20824;-79
2020/12/02 00:45:41;;;;;;;40.43;26.07;;;5.10;99.90;;;;;;5076829;28;20444;-79
2020/12/02 00:48:12;;;;;;;47.20;29.83;;;5.10;99.90;;;;;;5078471;28;20536;-79
2020/12/02 00:50:40;;;;;;;48.37;30.10;;;5.10;99.90;;;;;;5077380;28;20465;-79
2020/12/02 00:53:10;;;;;;;49.03;30.33;;;5.10;99.90;;;;;;5077896;28;20942;-79
2020/12/02 00:55:37;;;;;;;48.83;28.83;;;5.10;99.90;;;;;;5091088;28;20456;-79
2020/12/02 00:58:09;;;;;;;50.03;30.57;;;5.10;99.90;;;;;;5081730;28;20457;-79
2020/12/02 01:00:41;;;;;;;48.43;30.93;;;5.10;99.90;;;;;;5076869;28;20480;-80
2020/12/02 01:03:17;;;;;;;47.27;29.23;;;5.10;99.90;;;;;;5077650;28;20464;-79
2020/12/02 01:05:46;;;;;;;48.60;28.17;;;5.10;99.90;;;;;;5077178;28;20968;-79
2020/12/02 01:08:21;;;;;;;47.73;31.50;;;5.10;99.90;;;;;;5079300;28;21064;-79
2020/12/02 01:10:52;;;;;;;46.37;30.60;;;5.10;99.90;;;;;;5078481;28;20503;-79
2020/12/02 01:13:19;;;;;;;47.20;29.53;;;5.10;99.90;;;;;;5088903;28;20445;-80
2020/12/02 01:15:48;;;;;;;51.90;32.50;;;5.10;99.90;;;;;;5092931;28;20974;-79
2020/12/02 01:18:18;;;;;;;52.50;30.43;;;5.00;99.90;;;;;;5080040;28;20963;-79
2020/12/02 01:20:47;;;;;;;52.50;29.13;;;5.00;99.90;;;;;;5078064;28;20476;-80
2020/12/02 01:23:16;;;;;;;51.73;30.40;;;5.00;99.90;;;;;;5074741;28;20473;-79
2020/12/02 01:25:46;;;;;;;51.27;31.00;;;5.00;99.90;;;;;;5076605;28;20480;-79
2020/12/02 01:28:20;;;;;;;52.50;32.03;;;5.00;99.90;;;;;;5090436;28;20448;-79
2020/12/02 01:30:49;;;;;;;55.07;32.47;;;5.00;99.90;;;;;;5075741;28;20473;-79
2020/12/02 01:33:16;;;;;;;55.70;31.70;;;5.00;99.90;;;;;;5076526;28;20468;-79
2020/12/02 01:35:48;;;;;;;55.70;33.30;;;5.00;99.90;;;;;;5076480;28;20966;-79
2020/12/02 01:38:22;;;;;;;57.43;33.23;;;5.00;99.90;;;;;;5076974;28;20539;-79
2020/12/02 01:40:52;;;;;;;59.73;34.30;;;5.00;99.90;;;;;;5081182;28;20463;-79
2020/12/02 01:43:19;;;;;;;68.40;34.83;;;5.00;99.90;;;;;;5074955;28;21017;-79
2020/12/02 01:45:50;;;;;;;57.90;36.20;;;4.90;99.90;;;;;;5076014;28;20440;-79
2020/12/02 01:48:41;;;;;;;61.83;36.27;;;4.90;99.90;;;;;;5075165;28;20437;-79
2020/12/02 01:51:18;;;;;;;64.57;35.60;;;4.90;99.90;;;;;;5089197;28;20638;-79
2020/12/02 01:53:55;;;;;;;67.60;38.10;;;4.90;99.90;;;;;;5074865;28;21016;-79
2020/12/02 01:56:34;;;;;;;67.87;38.67;;;4.90;99.90;;;;;;5074049;28;20452;-79
2020/12/02 01:59:10;;;;;;;64.20;36.80;;;4.90;99.90;;;;;;5078430;28;20428;-79
2020/12/02 02:02:06;;;;;;;67.00;39.63;;;4.90;99.90;;;;;;5075373;28;20941;-79
2020/12/02 02:04:41;;;;;;;61.10;39.40;;;4.90;99.90;;;;;;5075260;28;20480;-79
2020/12/02 02:07:15;;;;;;;68.70;43.70;;;4.90;99.90;;;;;;5080630;28;20512;-79
2020/12/02 02:09:45;;;;;;;61.97;42.38;;;4.90;99.90;;;;;;5090260;28;20449;-79
2020/12/02 02:12:46;;;;;;;67.40;42.00;;;5.00;99.90;;;;;;5084598;28;20295;-79
2020/12/02 02:15:29;;;;;;;61.83;40.30;;;5.00;99.90;;;;;;5074833;28;20453;-78
2020/12/02 02:17:59;;;;;;;65.60;41.22;;;5.00;99.90;;;;;;5075393;28;20487;-79
2020/12/02 02:20:30;;;;;;;59.90;38.50;;;5.00;99.90;;;;;;5086514;28;20219;-80
2020/12/02 02:22:57;;;;;;;60.17;39.37;;;5.00;99.90;;;;;;5096612;28;20560;-80
2020/12/02 02:25:24;;;;;;;57.13;41.20;;;5.00;99.90;;;;;;5095541;28;20441;-80
2020/12/02 02:27:56;;;;;;;60.47;39.80;;;5.00;99.90;;;;;;5097241;28;20945;-80
2020/12/02 02:30:23;;;;;;;59.67;40.00;;;4.90;99.90;;;;;;5090613;28;20469;-80
2020/12/02 02:32:51;;;;;;;61.97;40.30;;;4.90;99.90;;;;;;5076878;28;20539;-80
2020/12/02 02:35:18;;;;;;;56.47;38.40;;;4.90;99.90;;;;;;5096446;28;20531;-80
2020/12/02 02:37:45;;;;;;;61.77;40.10;;;4.90;99.90;;;;;;5099401;28;20462;-80
2020/12/02 02:40:14;;;;;;;60.20;41.73;;;4.90;99.90;;;;;;5097637;28;20464;-80
2020/12/02 02:42:43;;;;;;;56.43;37.73;;;4.90;99.90;;;;;;5080634;28;20459;-80
2020/12/02 02:45:16;;;;;;;57.90;41.17;;;4.90;99.90;;;;;;5092183;28;20457;-80
2020/12/02 02:47:44;;;;;;;58.20;38.70;;;4.90;99.90;;;;;;5082150;28;20491;-80
2020/12/02 02:50:13;;;;;;;56.27;37.33;;;4.90;99.90;;;;;;5079796;28;20460;-80
2020/12/02 02:52:42;;;;;;;61.33;39.50;;;4.90;99.90;;;;;;5101956;28;20444;-80
2020/12/02 02:55:11;;;;;;;56.97;37.10;;;4.90;99.90;;;;;;5101512;28;20441;-80
2020/12/02 02:57:39;;;;;;;57.40;40.00;;;4.90;99.90;;;;;;5102176;28;20444;-80
2020/12/02 03:00:11;;;;;;;60.77;38.93;;;4.90;99.90;;;;;;5102027;28;20452;-80
2020/12/02 03:02:44;;;;;;;58.00;36.80;;;4.90;99.90;;;;;;5078331;28;20452;-80
2020/12/02 03:05:14;;;;;;;54.90;38.30;;;4.90;99.90;;;;;;5079629;28;20457;-80
2020/12/02 03:07:43;;;;;;;58.27;38.23;;;4.90;99.90;;;;;;5084400;28;20544;-80
2020/12/02 03:10:15;;;;;;;59.67;38.50;;;4.90;99.90;;;;;;5077907;28;20508;-80
2020/12/02 03:12:45;;;;;;;57.67;39.10;;;4.90;99.90;;;;;;5089277;28;20455;-80
2020/12/02 03:15:13;;;;;;;54.93;38.20;;;4.90;99.90;;;;;;5095021;28;20471;-80
2020/12/02 03:17:41;;;;;;;60.10;38.83;;;4.90;99.90;;;;;;5095648;28;20480;-80
2020/12/02 03:20:15;;;;;;;61.20;40.27;;;4.90;99.90;;;;;;5078280;28;20464;-80
2020/12/02 03:22:43;;;;;;;59.43;38.70;;;4.90;99.90;;;;;;5092552;28;20541;-80
2020/12/02 03:25:17;;;;;;;57.40;38.97;;;4.90;99.90;;;;;;5078551;28;20904;-80
2020/12/02 03:27:45;;;;;;;55.23;38.90;;;4.90;99.90;;;;;;5078759;28;20444;-80
2020/12/02 03:30:12;;;;;;;56.67;39.10;;;4.90;99.90;;;;;;5080052;28;20475;-80
2020/12/02 03:32:40;;;;;;;55.63;37.90;;;4.90;99.90;;;;;;5085454;28;20457;-80
2020/12/02 03:35:11;;;;;;;60.17;40.00;;;4.90;99.90;;;;;;5089356;28;20452;-80
2020/12/02 03:37:38;;;;;;;55.67;40.23;;;4.80;99.90;;;;;;5082533;28;20882;-80
2020/12/02 03:40:09;;;;;;;61.30;40.17;;;4.80;99.90;;;;;;5097975;28;20858;-79
2020/12/02 03:42:36;;;;;;;57.93;38.77;;;4.80;99.90;;;;;;5098076;28;20465;-80
2020/12/02 03:45:04;;;;;;;59.17;39.00;;;4.80;99.90;;;;;;5085402;28;20472;-80
2020/12/02 03:47:32;;;;;;;59.23;39.47;;;4.80;99.90;;;;;;5076553;28;20956;-80
2020/12/02 03:49:59;;;;;;;57.50;40.17;;;4.80;99.90;;;;;;5096224;28;20475;-81
2020/12/02 03:52:27;;;;;;;56.13;37.03;;;4.80;99.90;;;;;;5078731;28;20433;-80
2020/12/02 03:54:55;;;;;;;59.30;42.83;;;4.80;99.90;;;;;;5083063;28;20484;-80
2020/12/02 03:57:22;;;;;;;60.90;39.50;;;4.80;99.90;;;;;;5077726;28;21087;-80
2020/12/02 03:59:50;;;;;;;54.90;39.20;;;4.80;99.90;;;;;;5097939;28;20480;-80
2020/12/02 04:02:17;;;;;;;64.97;41.37;;;4.80;99.90;;;;;;5077812;28;20444;-80
2020/12/02 04:04:44;;;;;;;56.60;40.87;;;4.90;99.90;;;;;;5080166;28;20465;-80
2020/12/02 04:07:12;;;;;;;58.20;39.33;;;4.80;99.90;;;;;;5088996;28;21060;-80
2020/12/02 04:09:40;;;;;;;59.10;40.83;;;4.80;99.90;;;;;;5086315;28;20471;-80
2020/12/02 04:12:07;;;;;;;59.13;41.03;;;4.80;99.90;;;;;;5079338;28;20465;-80
2020/12/02 04:14:35;;;;;;;59.57;40.00;;;4.80;99.90;;;;;;5077228;28;20437;-80
2020/12/02 04:17:02;;;;;;;57.33;39.07;;;4.80;99.90;;;;;;5078743;28;20461;-80
2020/12/02 04:19:29;;;;;;;58.07;39.57;;;4.80;99.90;;;;;;5086970;28;20472;-80
2020/12/02 04:21:58;;;;;;;58.20;39.93;;;4.80;99.90;;;;;;5099655;28;20431;-80
2020/12/02 04:24:26;;;;;;;57.13;40.80;;;4.80;99.90;;;;;;5079472;28;20544;-80
2020/12/02 04:26:53;;;;;;;58.57;39.70;;;4.80;99.90;;;;;;5096090;28;20454;-81
2020/12/02 04:29:21;;;;;;;55.83;40.47;;;4.80;99.90;;;;;;5095024;28;20823;-80
2020/12/02 04:31:48;;;;;;;58.50;42.63;;;4.80;99.90;;;;;;5078790;28;20467;-80
2020/12/02 04:34:15;;;;;;;63.07;44.47;;;4.80;99.90;;;;;;5093526;28;20471;-80
2020/12/02 04:36:47;;;;;;;66.53;44.07;;;4.80;99.90;;;;;;5089471;28;20539;-80
2020/12/02 04:39:15;;;;;;;59.20;42.03;;;4.80;99.90;;;;;;5096290;28;20888;-80
2020/12/02 04:41:43;;;;;;;60.07;42.60;;;4.80;99.90;;;;;;5100359;28;20440;-80
2020/12/02 04:44:14;;;;;;;61.60;41.23;;;4.80;99.90;;;;;;5099419;28;21077;-80
2020/12/02 04:46:41;;;;;;;61.27;43.67;;;4.80;99.90;;;;;;5084661;28;20969;-80
2020/12/02 04:49:15;;;;;;;59.87;40.80;;;4.70;99.90;;;;;;5077324;28;20922;-80
2020/12/02 04:51:43;;;;;;;60.20;40.30;;;4.70;99.90;;;;;;5092479;28;20438;-80
2020/12/02 04:54:12;;;;;;;59.90;40.70;;;4.70;99.90;;;;;;5093744;28;20475;-80
2020/12/02 04:56:45;;;;;;;61.15;39.45;;;4.70;99.90;;;;;;5094131;28;20482;-80
2020/12/02 04:59:12;;;;;;;59.97;41.47;;;4.70;99.90;;;;;;5074573;28;20480;-80
2020/12/02 05:01:51;;;;;;;58.40;39.67;;;4.70;99.90;;;;;;5076301;28;20441;-80
2020/12/02 05:04:25;;;;;;;61.33;41.23;;;4.70;99.90;;;;;;5076928;28;20497;-80
2020/12/02 05:07:07;;;;;;;56.87;39.13;;;4.70;99.90;;;;;;5076890;28;20863;-80
2020/12/02 05:09:38;;;;;;;55.37;39.27;;;4.70;99.90;;;;;;5086615;28;21001;-80
2020/12/02 05:12:15;;;;;;;57.03;39.43;;;4.70;99.90;;;;;;5077083;28;20505;-80
2020/12/02 05:14:44;;;;;;;57.30;40.40;;;4.70;99.90;;;;;;5091115;28;20540;-80
2020/12/02 05:17:19;;;;;;;56.17;39.13;;;4.70;99.90;;;;;;5106455;28;20432;-80
2020/12/02 05:19:48;;;;;;;61.13;43.33;;;4.70;99.90;;;;;;5089977;28;20460;-80
2020/12/02 05:22:17;;;;;;;60.43;37.87;;;4.70;99.90;;;;;;5083951;28;20821;-80
2020/12/02 05:24:47;;;;;;;67.70;44.20;;;4.70;99.90;;;;;;5085211;28;20515;-80
2020/12/02 05:27:21;;;;;;;61.10;42.03;;;4.70;99.90;;;;;;5084220;28;20472;-80
2020/12/02 05:29:51;;;;;;;60.37;39.47;;;4.70;99.90;;;;;;5079401;28;20562;-81
2020/12/02 05:32:23;;;;;;;56.87;40.63;;;4.70;99.90;;;;;;5079809;28;20536;-80
2020/12/02 05:34:50;;;;;;;57.30;40.03;;;4.70;99.90;;;;;;5090601;28;20844;-80
2020/12/02 05:37:29;;;;;;;56.60;40.00;;;4.70;99.90;;;;;;5096683;28;20444;-80
2020/12/02 05:39:59;;;;;;;50.23;36.10;;;4.70;99.90;;;;;;5096510;28;20486;-80
2020/12/02 05:42:33;;;;;;;63.90;43.63;;;4.70;99.90;;;;;;5085380;28;20459;-82
2020/12/02 05:45:11;;;;;;;58.03;41.03;;;4.70;99.90;;;;;;5084477;28;21027;-81
2020/12/02 05:47:39;;;;;;;56.37;40.70;;;4.70;99.90;;;;;;5097296;28;20485;-80
2020/12/02 05:50:11;;;;;;;56.80;40.50;;;4.70;99.90;;;;;;5098251;28;20464;-80
2020/12/02 05:52:40;;;;;;;56.10;39.07;;;4.70;99.90;;;;;;5089468;28;20436;-79
2020/12/02 05:55:16;;;;;;;51.57;37.93;;;4.70;99.90;;;;;;5085182;28;20437;-79
2020/12/02 05:57:54;;;;;;;57.67;40.50;;;4.70;99.90;;;;;;5077710;28;20421;-79
2020/12/02 06:00:22;;;;;;;54.87;39.43;;;4.70;99.90;;;;;;5077561;28;20449;-79
2020/12/02 06:02:52;;;;;;;53.90;38.77;;;4.70;99.90;;;;;;5084185;28;20448;-78
2020/12/02 06:05:20;;;;;;;50.90;39.83;;;4.70;99.90;;;;;;5096363;28;20562;-79
2020/12/02 06:07:50;;;;;;;51.30;38.03;;;4.60;99.90;;;;;;5097542;28;20428;-79
2020/12/02 06:10:20;;;;;;;54.07;38.10;;;4.60;99.90;;;;;;5099124;28;20559;-79
2020/12/02 06:12:47;;;;;;;60.27;39.30;;;4.60;99.90;;;;;;5086594;28;20868;-79
2020/12/02 06:15:22;;;;;;;50.27;39.30;;;4.60;99.90;;;;;;5081638;28;20552;-79
2020/12/02 06:17:50;;;;;;;55.33;39.07;;;4.60;99.90;;;;;;5094493;28;20480;-79
2020/12/02 06:20:23;;;;;;;59.13;39.80;;;4.60;99.90;;;;;;5094987;28;20467;-79
2020/12/02 06:22:52;;;;;;;55.30;39.30;;;4.60;99.90;;;;;;5079524;28;20838;-79
2020/12/02 06:25:48;;;;;;;57.53;40.60;;;4.60;99.90;;;;;;5077918;28;20491;-79
2020/12/02 06:28:43;;;;;;;55.10;39.10;;;4.60;99.90;;;;;;5078258;28;20452;-79
2020/12/02 06:31:19;;;;;;;53.67;39.83;;;4.60;99.90;;;;;;5078028;28;20519;-79
2020/12/02 06:33:48;;;;;;;53.53;40.43;;;4.60;99.90;;;;;;5078267;28;20464;-79
2020/12/02 06:36:19;;;;;;;51.20;39.00;;;4.60;99.90;;;;;;5078924;28;20453;-79
2020/12/02 06:38:49;;;;;;;55.70;39.53;;;4.60;99.90;;;;;;5080342;28;20989;-79
2020/12/02 06:41:32;;;;;;;56.60;40.47;;;4.60;99.90;;;;;;5078792;28;20997;-79
2020/12/02 06:44:04;;;;;;;51.63;38.97;;;4.60;99.90;;;;;;5078117;28;20543;-79
2020/12/02 06:47:01;;;;;;;51.00;37.90;;;4.60;99.90;;;;;;5078054;28;20808;-79
2020/12/02 06:49:30;;;;;;;52.50;36.33;;;4.60;99.90;;;;;;5078114;28;20536;-79
2020/12/02 06:51:59;;;;;;;54.23;38.10;;;4.60;99.90;;;;;;5077644;28;20440;-79
2020/12/02 06:54:30;;;;;;;53.37;37.90;;;4.60;99.90;;;;;;5079598;28;20476;-79
2020/12/02 06:57:08;;;;;;;54.57;39.13;;;4.60;99.90;;;;;;5078345;28;20453;-79
2020/12/02 06:59:49;;;;;;;51.50;41.00;;;4.60;99.90;;;;;;5078412;28;20515;-79
2020/12/02 07:02:26;;;;;;;49.50;36.80;;;4.60;99.90;;;;;;5079982;28;20550;-79
2020/12/02 07:04:55;;;;;;;52.40;36.97;;;4.60;99.90;;;;;;5079822;28;20468;-79
2020/12/02 07:07:22;;;;;;;50.40;38.80;;;4.60;99.90;;;;;;5078301;28;20879;-79
2020/12/02 07:09:49;;;;;;;46.87;37.13;;;4.70;99.90;;;;;;5089366;28;20212;-79
2020/12/02 07:12:21;;;;;;;53.63;40.70;;;4.70;99.90;;;;;;5098231;28;20544;-79
2020/12/02 07:14:49;;;;;;;55.13;41.13;;;4.70;99.90;;;;;;5092809;28;20900;-79
2020/12/02 07:17:21;;;;;;;49.90;38.50;;;4.60;99.90;;;;;;5078962;28;20556;-78
2020/12/02 07:19:49;;;;;;;52.93;38.20;;;4.60;99.90;;;;;;5089743;28;20827;-79
2020/12/02 07:22:20;;;;;;;48.97;37.90;;;4.60;99.90;;;;;;5093200;28;20466;-79
2020/12/02 07:24:48;;;;;;;49.70;38.40;;;4.60;99.90;;;;;;5099100;28;20506;-79
2020/12/02 07:27:17;;;;;;;51.80;38.43;;;4.60;99.90;;;;;;5079234;28;20453;-79
2020/12/02 07:29:44;;;;;;;54.97;40.10;;;4.60;99.90;;;;;;5081570;28;20578;-79
2020/12/02 07:32:15;;;;;;;55.83;41.47;;;4.60;99.90;;;;;;5100402;28;20496;-79
2020/12/02 07:34:43;;;;;;;51.33;37.67;;;4.60;99.90;;;;;;5091106;28;20430;-79
2020/12/02 07:37:13;;;;;;;50.07;36.93;;;4.60;99.90;;;;;;5081552;28;20475;-79
2020/12/02 07:39:46;;;;;;;51.47;38.67;;;4.60;99.90;;;;;;5079458;28;20461;-79
2020/12/02 07:42:17;;;;;;;53.13;40.63;;;4.60;99.90;;;;;;5076561;28;20521;-79
2020/12/02 07:44:49;;;;;;;57.87;39.83;;;4.60;99.90;;;;;;5088383;28;20547;-79
2020/12/02 07:47:17;;;;;;;51.03;38.07;;;4.60;99.90;;;;;;5096913;28;20475;-79
2020/12/02 07:49:56;;;;;;;49.77;38.73;;;4.60;99.90;;;;;;5081185;28;20469;-79
2020/12/02 07:52:29;;;;;;;49.77;38.97;;;4.60;99.90;;;;;;5076101;28;20433;-79
2020/12/02 07:54:57;;;;;;;50.67;37.70;;;4.60;99.90;;;;;;5076959;28;20429;-79
2020/12/02 07:57:26;;;;;;;49.60;38.73;;;4.60;99.90;;;;;;5077719;28;20457;-79
2020/12/02 08:00:15;;;;;;;50.27;38.33;;;4.60;99.90;;;;;;5084086;28;20511;-79
2020/12/02 08:02:44;;;;;;;48.97;39.13;;;4.60;99.90;;;;;;5077081;28;20418;-79
2020/12/02 08:05:34;;;;;;;50.87;38.10;;;4.60;99.90;;;;;;5076180;28;20476;-79
2020/12/02 08:08:01;;;;;;;50.20;36.43;;;4.60;99.90;;;;;;5077977;28;20436;-79
2020/12/02 08:10:31;;;;;;;53.10;38.33;;;4.60;99.90;;;;;;5076609;28;20993;-79
2020/12/02 08:13:01;;;;;;;48.80;37.87;;;4.60;99.90;;;;;;5076211;28;20472;-79
2020/12/02 08:15:29;;;;;;;53.70;38.13;;;4.60;99.90;;;;;;5094045;28;20498;-79
2020/12/02 08:18:03;;;;;;;46.23;39.10;;;4.60;99.90;;;;;;5075862;28;20453;-79
2020/12/02 08:20:33;;;;;;;45.90;37.80;;;4.60;99.90;;;;;;5075981;28;20457;-79
2020/12/02 08:23:07;;;;;;;46.97;38.20;;;4.60;99.90;;;;;;5077684;28;20907;-79
2020/12/02 08:25:37;;;;;;;48.60;37.10;;;4.60;99.90;;;;;;5075962;28;20500;-79
2020/12/02 08:28:09;;;;;;;52.77;41.40;;;4.60;99.90;;;;;;5091476;28;20543;-79
2020/12/02 08:30:38;;;;;;;53.83;38.00;;;4.60;99.90;;;;;;5089371;28;20479;-79
2020/12/02 08:33:10;;;;;;;53.23;39.07;;;4.60;99.90;;;;;;5095860;28;20544;-79
2020/12/02 08:35:39;;;;;;;51.43;40.40;;;4.60;99.90;;;;;;5096577;28;20436;-79
2020/12/02 08:38:12;;;;;;;48.67;37.90;;;4.60;99.90;;;;;;5085737;28;20437;-79
2020/12/02 08:40:43;;;;;;;52.67;38.60;;;4.60;99.90;;;;;;5082078;28;20471;-79
2020/12/02 08:43:38;;;;;;;46.30;36.03;;;4.60;99.90;;;;;;5096919;28;20465;-79
2020/12/02 08:46:15;;;;;;;48.53;37.00;;;4.60;99.90;;;;;;5041420;28;20494;-79
2020/12/02 08:48:46;;;;;;;46.93;37.83;;;4.60;99.90;;;;;;5085590;28;20981;-79
2020/12/02 08:51:16;;;;;;;50.93;37.60;;;4.60;99.90;;;;;;5098714;28;20475;-79
2020/12/02 08:53:44;;;;;;;47.50;37.73;;;4.60;99.90;;;;;;5099555;28;20489;-79
2020/12/02 08:56:39;;;;;;;50.87;37.93;;;4.60;99.90;;;;;;5099570;28;20457;-79
2020/12/02 08:59:07;;;;;;;47.20;36.47;;;4.60;99.90;;;;;;5024809;28;20472;-79
2020/12/02 09:01:35;;;;;;;45.53;36.20;;;4.60;99.90;;;;;;5078225;28;20890;-79
2020/12/02 09:04:02;;;;;;;47.13;35.80;;;4.60;99.90;;;;;;5075497;28;20540;-79
2020/12/02 09:06:29;;;;;;;48.80;35.70;;;4.60;99.90;;;;;;5076261;28;20437;-79
2020/12/02 09:08:57;;;;;;;52.43;38.63;;;4.60;99.90;;;;;;5074501;28;20453;-79
2020/12/02 09:11:27;;;;;;;49.20;37.33;;;4.60;99.90;;;;;;5085281;28;20460;-79
2020/12/02 09:13:56;;;;;;;47.03;35.93;;;4.60;99.90;;;;;;5076268;28;20512;-79
2020/12/02 09:16:26;;;;;;;47.80;36.50;;;4.60;99.90;;;;;;5075338;28;20460;-79
2020/12/02 09:18:54;;;;;;;49.63;37.80;;;4.60;99.90;;;;;;5077040;28;20472;-79
2020/12/02 09:21:23;;;;;;;48.90;36.57;;;4.80;99.90;;;;;;5075170;28;20500;-79
2020/12/02 09:23:50;;;;;;;49.03;36.00;;;4.70;99.90;;;;;;5074491;28;20438;-79
2020/12/02 09:26:20;;;;;;;47.88;38.70;;;4.70;99.90;;;;;;5076897;28;20442;-80
2020/12/02 09:28:48;;;;;;;45.07;37.17;;;4.80;99.90;;;;;;5082905;28;20233;-79
2020/12/02 09:31:17;;;;;;;44.33;36.43;;;4.80;99.90;;;;;;5088319;28;20457;-79
2020/12/02 09:33:45;;;;;;;47.20;34.83;;;4.70;99.90;;;;;;5084877;28;20540;-79
2020/12/02 09:36:12;;;;;;;44.07;37.10;;;4.80;99.90;;;;;;5096630;28;20795;-79
2020/12/02 09:38:41;;;;;;;44.53;34.83;;;4.70;99.90;;;;;;5090252;28;20445;-79
2020/12/02 09:41:32;;;;;;;47.27;40.27;;;4.70;99.90;;;;;;5076010;28;20481;-79
2020/12/02 09:44:34;;;;;;;46.70;36.33;;;4.80;99.90;;;;;;5075619;28;20479;-79
2020/12/02 09:47:06;;;;;;;46.20;34.67;;;4.80;99.90;;;;;;5060120;28;20480;-79
2020/12/02 09:49:34;;;;;;;44.83;35.23;;;4.80;99.90;;;;;;5080523;28;20465;-79
2020/12/02 09:52:26;;;;;;;44.47;35.07;;;4.80;99.90;;;;;;5080039;28;20441;-79
2020/12/02 09:54:54;;;;;;;45.80;35.60;;;4.80;99.90;;;;;;5079881;28;20872;-79
2020/12/02 09:57:24;;;;;;;46.13;37.27;;;4.80;99.90;;;;;;5086675;28;20448;-79
2020/12/02 09:59:52;;;;;;;46.77;37.63;;;4.80;99.90;;;;;;5095896;28;20546;-79
2020/12/02 10:03:04;;;;;;;46.33;36.63;;;4.80;99.90;;;;;;5093377;28;20462;-79
2020/12/02 10:06:10;;;;;;;46.43;36.60;;;4.80;99.90;;;;;;5080352;28;20496;-79
2020/12/02 10:08:56;;;;;;;44.17;36.20;;;4.80;99.90;;;;;;5080492;28;20480;-79
2020/12/02 10:11:33;;;;;;;44.50;34.40;;;4.80;99.90;;;;;;5081755;28;20496;-79
2020/12/02 10:14:16;;;;;;;44.97;35.43;;;4.80;99.90;;;;;;5087393;28;20551;-79
2020/12/02 10:16:50;;;;;;;43.73;34.53;;;4.80;99.90;;;;;;5080974;28;20498;-78
2020/12/02 10:19:40;;;;;;;43.67;34.80;;;4.80;99.90;;;;;;5082295;28;20447;-80
2020/12/02 10:22:41;;;;;;;44.60;36.60;;;4.80;99.90;;;;;;5088843;28;20451;-79
2020/12/02 10:25:23;;;;;;;45.30;36.30;;;4.80;99.90;;;;;;5062915;28;20471;-79
2020/12/02 10:28:14;;;;;;;44.63;34.63;;;4.80;99.90;;;;;;5099950;28;20423;-79
2020/12/02 10:30:49;;;;;;;46.00;36.97;;;4.80;99.90;;;;;;5098264;28;20463;-79
2020/12/02 10:33:52;;;;;;;44.43;36.57;;;4.80;99.90;;;;;;5091513;28;20539;-79
2020/12/02 10:36:20;;;;;;;48.97;35.83;;;4.80;99.90;;;;;;5089023;28;20478;-79
2020/12/02 10:38:50;;;;;;;42.30;35.20;;;4.80;99.90;;;;;;5100022;28;20800;-79
2020/12/02 10:41:28;;;;;;;43.17;35.40;;;4.80;99.90;;;;;;5098972;28;20551;-79
2020/12/02 10:44:12;;;;;;;43.23;37.20;;;4.80;99.90;;;;;;5082028;28;20436;-79
2020/12/02 10:47:02;;;;;;;43.87;35.60;;;4.80;99.90;;;;;;5078082;28;20865;-79
2020/12/02 10:49:31;;;;;;;41.37;33.23;;;4.80;99.90;;;;;;5078097;28;20465;-79
2020/12/02 10:52:01;;;;;;;44.10;34.10;;;4.80;99.90;;;;;;5078318;28;20909;-79
2020/12/02 10:54:34;;;;;;;44.37;35.93;;;4.80;99.90;;;;;;5078122;28;20842;-79
2020/12/02 10:57:06;;;;;;;42.50;34.13;;;4.90;99.90;;;;;;5076995;28;20447;-79
2020/12/02 10:59:33;;;;;;;42.07;35.50;;;4.90;99.90;;;;;;5076684;28;20512;-79
2020/12/02 11:02:00;;;;;;;42.73;34.40;;;4.90;99.90;;;;;;5094221;28;20886;-79
2020/12/02 11:04:30;;;;;;;41.40;35.50;;;4.90;99.90;;;;;;5078924;28;20472;-79
2020/12/02 11:07:12;;;;;;;42.13;35.10;;;4.90;99.90;;;;;;5089135;28;20436;-79
2020/12/02 11:09:50;;;;;;;43.60;34.47;;;4.90;99.90;;;;;;5098475;28;20503;-80
2020/12/02 11:12:35;;;;;;;44.43;36.53;;;4.90;99.90;;;;;;5097877;28;20470;-79
2020/12/02 11:15:12;;;;;;;42.90;35.77;;;4.90;99.90;;;;;;5094281;28;20563;-79
2020/12/02 11:17:59;;;;;;;43.37;36.13;;;4.90;99.90;;;;;;5080152;28;20540;-79
2020/12/02 11:20:33;;;;;;;43.77;35.73;;;4.90;99.90;;;;;;5078387;28;20560;-79
2020/12/02 11:23:10;;;;;;;42.50;36.27;;;4.90;99.90;;;;;;5081767;28;20472;-79
2020/12/02 11:25:49;;;;;;;43.87;36.73;;;4.90;99.90;;;;;;5090087;28;20567;-79
2020/12/02 11:28:16;;;;;;;45.60;38.33;;;4.90;99.90;;;;;;5077245;28;20442;-79
2020/12/02 11:30:45;;;;;;;45.30;35.07;;;5.00;99.90;;;;;;5077769;28;20235;-79
2020/12/02 11:33:50;;;;;;;45.20;36.37;;;5.00;99.90;;;;;;5077484;28;20453;-79
2020/12/02 11:36:41;;;;;;;43.40;36.78;;;5.00;99.90;;;;;;5077627;28;20450;-79
2020/12/02 11:39:40;;;;;;;49.53;40.03;;;5.00;99.90;;;;;;5078487;28;20440;-79
2020/12/02 11:42:16;;;;;;;40.20;33.90;;;5.00;99.90;;;;;;5045638;28;20449;-79
2020/12/02 11:44:52;;;;;;;45.80;39.50;;;4.90;99.90;;;;;;5078960;28;21070;-80
2020/12/02 11:47:27;;;;;;;41.23;35.13;;;4.90;99.90;;;;;;5079558;28;20455;-79
2020/12/02 11:49:57;;;;;;;47.00;38.93;;;4.90;99.90;;;;;;5079772;28;20886;-79
2020/12/02 11:52:33;;;;;;;42.93;37.20;;;4.90;99.90;;;;;;5080274;28;20417;-79
2020/12/02 11:55:05;;;;;;;46.20;37.50;;;4.90;99.90;;;;;;5087147;28;20522;-79
2020/12/02 11:57:32;;;;;;;47.60;38.67;;;4.90;99.90;;;;;;5088144;28;20457;-79
2020/12/02 11:59:59;;;;;;;43.70;37.77;;;4.90;99.90;;;;;;5090178;28;20563;-79
2020/12/02 12:02:41;;;;;;;47.97;37.80;;;4.90;99.90;;;;;;5077006;28;20445;-79
2020/12/02 12:05:19;;;;;;;50.73;38.90;;;4.90;99.90;;;;;;5077970;28;20492;-79
2020/12/02 12:08:00;;;;;;;47.57;39.17;;;4.90;99.90;;;;;;5078239;28;20425;-79
2020/12/02 12:10:33;;;;;;;51.20;41.17;;;4.90;99.90;;;;;;5077347;28;20480;-79
2020/12/02 12:13:09;;;;;;;49.10;38.60;;;4.90;99.90;;;;;;5078002;28;20441;-79
2020/12/02 12:15:39;;;;;;;50.50;39.93;;;4.90;99.90;;;;;;5078868;28;20539;-79
2020/12/02 12:18:13;;;;;;;47.70;40.10;;;5.00;99.90;;;;;;5078991;28;20905;-79
2020/12/02 12:20:44;;;;;;;50.43;40.40;;;4.90;99.90;;;;;;5079029;28;20452;-79
2020/12/02 12:23:20;;;;;;;53.40;39.93;;;4.90;99.90;;;;;;5077221;28;20534;-79
2020/12/02 12:25:48;;;;;;;49.57;40.33;;;5.00;99.90;;;;;;5076682;28;20559;-79
2020/12/02 12:28:18;;;;;;;49.10;40.03;;;5.00;99.90;;;;;;5084606;28;20810;-79
2020/12/02 12:30:45;;;;;;;52.30;42.13;;;4.90;99.90;;;;;;5093308;28;20517;-79
2020/12/02 12:33:21;;;;;;;48.80;38.70;;;4.90;99.90;;;;;;5090864;28;20536;-79
2020/12/02 12:35:52;;;;;;;49.40;41.37;;;5.00;99.90;;;;;;5077593;28;20423;-79
2020/12/02 12:38:25;;;;;;;49.63;40.40;;;5.00;99.90;;;;;;5084076;28;20467;-79
2020/12/02 12:40:58;;;;;;;52.37;43.67;;;5.00;99.90;;;;;;5094919;28;21056;-79
2020/12/02 12:43:34;;;;;;;50.47;39.70;;;5.00;99.90;;;;;;5089190;28;20552;-79
2020/12/02 12:46:11;;;;;;;47.80;40.03;;;5.00;99.90;;;;;;5079318;28;20471;-79
2020/12/02 12:48:39;;;;;;;47.27;37.27;;;5.00;99.90;;;;;;5083059;28;20445;-79
2020/12/02 12:51:10;;;;;;;50.43;40.43;;;5.00;99.90;;;;;;5079224;28;20483;-79
2020/12/02 12:53:40;;;;;;;48.50;38.10;;;4.90;99.90;;;;;;5076734;28;20441;-79
2020/12/02 12:56:12;;;;;;;47.50;37.47;;;4.90;99.90;;;;;;5072981;28;20469;-79
2020/12/02 12:58:39;;;;;;;49.13;39.93;;;4.90;99.90;;;;;;5075529;28;20449;-79
2020/12/02 13:01:09;;;;;;;51.50;40.33;;;4.90;99.90;;;;;;5072658;28;20554;-79
2020/12/02 13:03:37;;;;;;;48.03;37.90;;;4.90;99.90;;;;;;5072608;28;20451;-78